SCELSAME

Guest
Details From SCEL - Arturo Merino Benitez Intl
To SAME - El Plumerillo
Flight Number -
Tags generated
Created
Modified
Stats Distance 106 nm / 197 km
Max Altitude 0 ft / 0 m
Waypoints 3
Social Downloads 17
Likes 0
Share VATSIM

Download

Looking for another format? Having issues loading an existing format? Contact us
Advertisement - Login to hide

Notes

Basic altitude profile: - Ascent Rate: 2500ft/min - Ascent Speed: 250kts - Cruise Altitude: 35000ft - Cruise Speed: 420kts - Descent Rate: 1500ft/min - Descent Speed: 250kts Options: - Use NATs: yes - Use PACOTS: yes - Use low airways: yes - Use high airways: yes

Route

SCEL DOZ SAME

ID Type Via Altitude Latitude Longitude Leg Dist Tot Dist Heading (true) Name
O SCEL APT - 0 ft / 0 m -33.38978˚ -70.79437˚ - 0 nm - Arturo Merino Benitez Intl
DOZ VOR - 0 ft / 0 m -32.83194˚ -68.79083˚ 106 nm 106 nm 72° / 71° MENDOZA VOR-DME
O SAME APT - 0 ft / 0 m -32.83175˚ -68.79294˚ 0 nm 106 nm 276° / 276° El Plumerillo

Altitude Profile

Advertisement - Login to hide

SCEL

Details ICAO SCEL (SCL)
Name Arturo Merino Benitez Intl
Region Chile
Timezone America/Santiago (UTC-4.0)
Stats Elevation 1,550 ft / 472 m (AMSL)
Location -33.389775° -70.794366°
Runways 2
Magnetic Variation 1.735° E

METAR

SCEL 202300Z 15010KT 9999 FEW120 SCT180 19/M02 Q1017 NOSIG

Decode

TAF

TAF SCEL 201627Z 2018/2118 18010KT CAVOK TX25/2019Z TN03/2111Z BECMG 2101/2103 16004KT BKN160 BECMG 2104/2106 VRB02KT BECMG 2108/2110 7000 NSC BECMG 2114/2116 16007KT CAVOK

Decode

Departure Runways

ID Width Length Bearing (true) Bearing (mag) Surface Threshold Offset Overrun Length
17L 180 ft / 55 m 10,523 ft / 3,207 m 177.43° 175.70° Asphalt 0 ft / 0 m 0 ft / 0 m
17R 148 ft / 45 m 12,504 ft / 3,811 m 177.44° 175.71° Asphalt 0 ft / 0 m 0 ft / 0 m
35L 148 ft / 45 m 12,504 ft / 3,811 m 357.44° 355.71° Asphalt 0 ft / 0 m 0 ft / 0 m
35R 180 ft / 55 m 10,523 ft / 3,207 m 357.43° 355.70° Asphalt 1,800 ft / 549 m 0 ft / 0 m

SAME

Details ICAO SAME (MDZ)
Name El Plumerillo
Region Argentina
Timezone America/Argentina/Mendoza (UTC-3.0)
Stats Elevation 2,310 ft / 704 m (AMSL)
Location -32.831753° -68.792941°
Runways 1
Magnetic Variation 0.451° W

METAR

SAME 202300Z 25002KT CAVOK 14/06 Q1013

Decode

TAF

TAF SAME 201700Z 2018/2118 05005KT CAVOK TX20/2020Z TN04/2110Z

Decode

Destination Runways

ID Width Length Bearing (true) Bearing (mag) Surface Threshold Offset Overrun Length
18 177 ft / 54 m 9,915 ft / 3,022 m 180.83° 181.28° Concrete 381 ft / 116 m 0 ft / 0 m
36 177 ft / 54 m 9,915 ft / 3,022 m 0.83° 1.28° Concrete 361 ft / 110 m 0 ft / 0 m

Approach Navaids

Runway Type Ident Frequency Range Bearing (true) Bearing (mag) Slope Elevation
36 Localiser DO 109.90 MHz 18 nm / 33 km 0.90° 1.35° - 2,310 ft / 704 m (AMSL)
36 Glidescope DO 109.90 MHz 10 nm / 19 km 0.83° 1.28° 3.00° 2,311 ft / 704 m (AMSL)
36 DME DO 109.90 MHz 18 nm / 33 km - - - 2,311 ft / 704 m (AMSL)

Popular Alternatives